sensor_id;sensor_type;location;lat;lon;timestamp;temperature;humidity
76936;DHT22;65881;52.438;16.744;2023-09-18T00:00:56;15.90;98.10
76936;DHT22;65881;52.438;16.744;2023-09-18T00:03:22;15.90;98.00
76936;DHT22;65881;52.438;16.744;2023-09-18T00:05:50;15.80;97.40
76936;DHT22;65881;52.438;16.744;2023-09-18T00:08:17;15.80;97.10
76936;DHT22;65881;52.438;16.744;2023-09-18T00:10:54;15.80;97.60
76936;DHT22;65881;52.438;16.744;2023-09-18T00:13:21;15.70;99.50
76936;DHT22;65881;52.438;16.744;2023-09-18T00:15:47;15.80;99.90
76936;DHT22;65881;52.438;16.744;2023-09-18T00:18:14;15.80;99.90
76936;DHT22;65881;52.438;16.744;2023-09-18T00:20:40;15.80;99.70
76936;DHT22;65881;52.438;16.744;2023-09-18T00:23:07;15.80;99.70
76936;DHT22;65881;52.438;16.744;2023-09-18T00:25:33;15.80;99.70
76936;DHT22;65881;52.438;16.744;2023-09-18T00:27:59;15.80;99.50
76936;DHT22;65881;52.438;16.744;2023-09-18T00:30:25;15.80;99.20
76936;DHT22;65881;52.438;16.744;2023-09-18T00:32:50;15.80;99.30
76936;DHT22;65881;52.438;16.744;2023-09-18T00:35:16;15.80;99.20
76936;DHT22;65881;52.438;16.744;2023-09-18T00:37:42;15.80;99.30
76936;DHT22;65881;52.438;16.744;2023-09-18T00:40:09;15.90;99.20
76936;DHT22;65881;52.438;16.744;2023-09-18T00:42:34;16.00;99.00
76936;DHT22;65881;52.438;16.744;2023-09-18T00:45:01;16.00;98.60
76936;DHT22;65881;52.438;16.744;2023-09-18T00:47:27;16.00;98.40
76936;DHT22;65881;52.438;16.744;2023-09-18T00:49:53;16.00;98.30
76936;DHT22;65881;52.438;16.744;2023-09-18T00:52:22;16.10;98.00
76936;DHT22;65881;52.438;16.744;2023-09-18T00:54:48;16.10;97.60
76936;DHT22;65881;52.438;16.744;2023-09-18T00:57:14;16.00;96.80
76936;DHT22;65881;52.438;16.744;2023-09-18T00:59:40;16.00;96.80
76936;DHT22;65881;52.438;16.744;2023-09-18T01:02:06;16.00;96.50
76936;DHT22;65881;52.438;16.744;2023-09-18T01:04:33;15.90;97.00
76936;DHT22;65881;52.438;16.744;2023-09-18T01:07:02;15.80;97.70
76936;DHT22;65881;52.438;16.744;2023-09-18T01:09:34;15.80;98.30
76936;DHT22;65881;52.438;16.744;2023-09-18T01:17:18;15.80;98.70
76936;DHT22;65881;52.438;16.744;2023-09-18T01:19:45;15.80;98.60
76936;DHT22;65881;52.438;16.744;2023-09-18T01:22:17;15.80;98.80
76936;DHT22;65881;52.438;16.744;2023-09-18T01:24:44;15.80;99.20
76936;DHT22;65881;52.438;16.744;2023-09-18T01:27:14;15.80;99.00
76936;DHT22;65881;52.438;16.744;2023-09-18T01:29:43;15.90;98.30
76936;DHT22;65881;52.438;16.744;2023-09-18T01:32:09;15.80;98.20
76936;DHT22;65881;52.438;16.744;2023-09-18T01:34:38;15.80;98.10
76936;DHT22;65881;52.438;16.744;2023-09-18T01:37:07;15.80;98.10
76936;DHT22;65881;52.438;16.744;2023-09-18T01:39:35;15.80;98.30
76936;DHT22;65881;52.438;16.744;2023-09-18T01:42:03;15.80;98.20
76936;DHT22;65881;52.438;16.744;2023-09-18T01:44:33;15.80;98.10
76936;DHT22;65881;52.438;16.744;2023-09-18T01:47:02;15.80;97.80
76936;DHT22;65881;52.438;16.744;2023-09-18T01:49:34;15.80;97.90
76936;DHT22;65881;52.438;16.744;2023-09-18T01:52:01;15.80;97.80
76936;DHT22;65881;52.438;16.744;2023-09-18T01:54:27;15.80;98.10
76936;DHT22;65881;52.438;16.744;2023-09-18T01:56:53;15.80;98.00
76936;DHT22;65881;52.438;16.744;2023-09-18T01:59:19;15.80;97.40
76936;DHT22;65881;52.438;16.744;2023-09-18T02:01:45;15.70;97.70
76936;DHT22;65881;52.438;16.744;2023-09-18T02:04:11;15.60;97.90
76936;DHT22;65881;52.438;16.744;2023-09-18T02:06:36;15.60;98.00
76936;DHT22;65881;52.438;16.744;2023-09-18T02:09:02;15.60;98.20
76936;DHT22;65881;52.438;16.744;2023-09-18T02:11:33;15.60;98.50
76936;DHT22;65881;52.438;16.744;2023-09-18T02:13:59;15.50;98.50
76936;DHT22;65881;52.438;16.744;2023-09-18T02:16:24;15.50;98.50
76936;DHT22;65881;52.438;16.744;2023-09-18T02:18:54;15.40;98.50
76936;DHT22;65881;52.438;16.744;2023-09-18T02:21:20;15.30;98.90
76936;DHT22;65881;52.438;16.744;2023-09-18T02:23:49;15.20;99.40
76936;DHT22;65881;52.438;16.744;2023-09-18T02:26:19;15.10;99.90
76936;DHT22;65881;52.438;16.744;2023-09-18T02:28:45;15.10;99.90
76936;DHT22;65881;52.438;16.744;2023-09-18T02:31:11;15.00;99.90
76936;DHT22;65881;52.438;16.744;2023-09-18T02:33:37;15.00;99.90
76936;DHT22;65881;52.438;16.744;2023-09-18T02:36:03;15.00;99.90
76936;DHT22;65881;52.438;16.744;2023-09-18T02:38:29;15.00;99.90
76936;DHT22;65881;52.438;16.744;2023-09-18T02:40:56;15.00;99.90
76936;DHT22;65881;52.438;16.744;2023-09-18T02:43:22;15.00;99.90
76936;DHT22;65881;52.438;16.744;2023-09-18T02:45:49;15.10;99.90
76936;DHT22;65881;52.438;16.744;2023-09-18T02:48:14;15.10;99.90
76936;DHT22;65881;52.438;16.744;2023-09-18T02:50:40;15.20;99.90
76936;DHT22;65881;52.438;16.744;2023-09-18T02:53:07;15.20;99.90
76936;DHT22;65881;52.438;16.744;2023-09-18T02:55:34;15.20;99.90
76936;DHT22;65881;52.438;16.744;2023-09-18T02:57:59;15.20;99.90
76936;DHT22;65881;52.438;16.744;2023-09-18T03:00:25;15.20;99.90
76936;DHT22;65881;52.438;16.744;2023-09-18T03:02:51;15.20;99.90
76936;DHT22;65881;52.438;16.744;2023-09-18T03:05:16;15.20;99.90
76936;DHT22;65881;52.438;16.744;2023-09-18T03:07:42;15.20;99.90
76936;DHT22;65881;52.438;16.744;2023-09-18T03:10:10;15.20;99.90
76936;DHT22;65881;52.438;16.744;2023-09-18T03:12:40;15.20;99.90
76936;DHT22;65881;52.438;16.744;2023-09-18T03:15:06;15.20;99.90
76936;DHT22;65881;52.438;16.744;2023-09-18T03:17:32;15.20;99.90
76936;DHT22;65881;52.438;16.744;2023-09-18T03:19:58;15.30;99.90
76936;DHT22;65881;52.438;16.744;2023-09-18T03:22:24;15.30;99.90
76936;DHT22;65881;52.438;16.744;2023-09-18T03:24:50;15.30;99.90
76936;DHT22;65881;52.438;16.744;2023-09-18T03:27:15;15.30;99.90
76936;DHT22;65881;52.438;16.744;2023-09-18T03:29:41;15.20;99.90
76936;DHT22;65881;52.438;16.744;2023-09-18T03:32:06;15.10;99.90
76936;DHT22;65881;52.438;16.744;2023-09-18T03:34:32;15.00;99.90
76936;DHT22;65881;52.438;16.744;2023-09-18T03:36:58;14.90;99.90
76936;DHT22;65881;52.438;16.744;2023-09-18T03:39:24;14.90;99.90
76936;DHT22;65881;52.438;16.744;2023-09-18T03:41:49;14.90;99.90
76936;DHT22;65881;52.438;16.744;2023-09-18T03:44:15;14.90;99.90
76936;DHT22;65881;52.438;16.744;2023-09-18T03:46:41;14.90;99.90
76936;DHT22;65881;52.438;16.744;2023-09-18T03:49:07;14.90;99.90
76936;DHT22;65881;52.438;16.744;2023-09-18T03:51:33;14.90;99.90
76936;DHT22;65881;52.438;16.744;2023-09-18T03:53:58;14.80;99.90
76936;DHT22;65881;52.438;16.744;2023-09-18T03:56:24;14.90;99.90
76936;DHT22;65881;52.438;16.744;2023-09-18T03:58:50;14.80;99.90
76936;DHT22;65881;52.438;16.744;2023-09-18T04:01:17;14.80;99.90
76936;DHT22;65881;52.438;16.744;2023-09-18T04:03:42;14.80;99.90
76936;DHT22;65881;52.438;16.744;2023-09-18T04:06:08;14.80;99.90
76936;DHT22;65881;52.438;16.744;2023-09-18T04:08:33;14.80;99.90
76936;DHT22;65881;52.438;16.744;2023-09-18T04:10:59;14.80;99.90
76936;DHT22;65881;52.438;16.744;2023-09-18T04:13:25;14.80;99.90
76936;DHT22;65881;52.438;16.744;2023-09-18T04:15:51;14.80;99.90
76936;DHT22;65881;52.438;16.744;2023-09-18T04:18:22;14.80;99.90
76936;DHT22;65881;52.438;16.744;2023-09-18T04:20:48;14.80;99.90
76936;DHT22;65881;52.438;16.744;2023-09-18T04:25:44;14.80;99.90
76936;DHT22;65881;52.438;16.744;2023-09-18T04:28:11;14.80;99.90
76936;DHT22;65881;52.438;16.744;2023-09-18T04:30:36;14.80;99.90
76936;DHT22;65881;52.438;16.744;2023-09-18T04:33:02;14.90;99.90
76936;DHT22;65881;52.438;16.744;2023-09-18T04:35:28;14.90;99.90
76936;DHT22;65881;52.438;16.744;2023-09-18T04:37:55;14.90;99.90
76936;DHT22;65881;52.438;16.744;2023-09-18T04:40:22;14.90;99.90
76936;DHT22;65881;52.438;16.744;2023-09-18T04:42:49;14.90;99.90
76936;DHT22;65881;52.438;16.744;2023-09-18T04:45:15;14.90;99.90
76936;DHT22;65881;52.438;16.744;2023-09-18T04:47:41;15.00;99.90
76936;DHT22;65881;52.438;16.744;2023-09-18T04:50:07;15.00;99.90
76936;DHT22;65881;52.438;16.744;2023-09-18T04:52:35;15.00;99.90
76936;DHT22;65881;52.438;16.744;2023-09-18T04:55:02;15.00;99.90
76936;DHT22;65881;52.438;16.744;2023-09-18T04:57:31;15.00;99.90
76936;DHT22;65881;52.438;16.744;2023-09-18T04:59:56;15.00;99.90
76936;DHT22;65881;52.438;16.744;2023-09-18T05:02:22;15.00;99.90
76936;DHT22;65881;52.438;16.744;2023-09-18T05:04:50;15.10;99.90
76936;DHT22;65881;52.438;16.744;2023-09-18T05:07:16;15.00;99.90
76936;DHT22;65881;52.438;16.744;2023-09-18T05:09:42;15.00;99.90
76936;DHT22;65881;52.438;16.744;2023-09-18T05:12:09;15.00;99.90
76936;DHT22;65881;52.438;16.744;2023-09-18T05:14:40;15.00;99.90
76936;DHT22;65881;52.438;16.744;2023-09-18T05:17:06;15.00;99.90
76936;DHT22;65881;52.438;16.744;2023-09-18T05:19:32;15.10;99.90
76936;DHT22;65881;52.438;16.744;2023-09-18T05:21:57;15.20;99.90
76936;DHT22;65881;52.438;16.744;2023-09-18T05:24:23;15.20;99.90
76936;DHT22;65881;52.438;16.744;2023-09-18T05:26:53;15.20;99.90
76936;DHT22;65881;52.438;16.744;2023-09-18T05:29:19;15.30;99.90
76936;DHT22;65881;52.438;16.744;2023-09-18T05:31:45;15.30;99.90
76936;DHT22;65881;52.438;16.744;2023-09-18T05:34:12;15.30;99.90
76936;DHT22;65881;52.438;16.744;2023-09-18T05:36:37;15.30;99.90
76936;DHT22;65881;52.438;16.744;2023-09-18T05:39:03;15.30;99.90
76936;DHT22;65881;52.438;16.744;2023-09-18T05:41:30;15.40;99.90
76936;DHT22;65881;52.438;16.744;2023-09-18T05:43:56;15.40;99.90
76936;DHT22;65881;52.438;16.744;2023-09-18T05:46:22;15.50;99.90
76936;DHT22;65881;52.438;16.744;2023-09-18T05:48:47;15.50;99.90
76936;DHT22;65881;52.438;16.744;2023-09-18T05:51:13;15.50;99.90
76936;DHT22;65881;52.438;16.744;2023-09-18T05:53:39;15.50;99.90
76936;DHT22;65881;52.438;16.744;2023-09-18T05:56:05;15.50;99.90
76936;DHT22;65881;52.438;16.744;2023-09-18T05:58:34;15.60;99.90
76936;DHT22;65881;52.438;16.744;2023-09-18T06:01:01;15.60;99.90
76936;DHT22;65881;52.438;16.744;2023-09-18T06:03:27;15.80;99.90
76936;DHT22;65881;52.438;16.744;2023-09-18T06:05:56;15.80;99.90
76936;DHT22;65881;52.438;16.744;2023-09-18T06:08:23;16.00;99.90
76936;DHT22;65881;52.438;16.744;2023-09-18T06:10:51;16.10;99.90
76936;DHT22;65881;52.438;16.744;2023-09-18T06:13:17;16.20;99.90
76936;DHT22;65881;52.438;16.744;2023-09-18T06:15:42;16.30;99.90
76936;DHT22;65881;52.438;16.744;2023-09-18T06:18:08;16.30;99.90
76936;DHT22;65881;52.438;16.744;2023-09-18T06:20:34;16.20;99.90
76936;DHT22;65881;52.438;16.744;2023-09-18T06:22:59;16.20;99.90
76936;DHT22;65881;52.438;16.744;2023-09-18T06:25:25;16.20;99.90
76936;DHT22;65881;52.438;16.744;2023-09-18T06:27:50;16.20;99.90
76936;DHT22;65881;52.438;16.744;2023-09-18T06:30:16;16.20;99.90
76936;DHT22;65881;52.438;16.744;2023-09-18T06:32:42;16.30;99.90
76936;DHT22;65881;52.438;16.744;2023-09-18T06:35:08;16.30;99.90
76936;DHT22;65881;52.438;16.744;2023-09-18T06:37:34;16.40;99.90
76936;DHT22;65881;52.438;16.744;2023-09-18T06:40:00;16.40;99.90
76936;DHT22;65881;52.438;16.744;2023-09-18T06:42:29;16.50;99.90
76936;DHT22;65881;52.438;16.744;2023-09-18T06:44:54;16.60;99.90
76936;DHT22;65881;52.438;16.744;2023-09-18T06:47:21;16.70;99.90
76936;DHT22;65881;52.438;16.744;2023-09-18T06:49:49;16.80;99.90
76936;DHT22;65881;52.438;16.744;2023-09-18T06:52:15;16.90;99.90
76936;DHT22;65881;52.438;16.744;2023-09-18T06:54:42;17.00;99.90
76936;DHT22;65881;52.438;16.744;2023-09-18T06:57:09;17.00;99.90
76936;DHT22;65881;52.438;16.744;2023-09-18T06:59:35;17.30;99.10
76936;DHT22;65881;52.438;16.744;2023-09-18T07:02:01;17.40;97.40
76936;DHT22;65881;52.438;16.744;2023-09-18T07:04:27;17.50;96.30
76936;DHT22;65881;52.438;16.744;2023-09-18T07:06:53;17.60;96.10
76936;DHT22;65881;52.438;16.744;2023-09-18T07:09:19;17.60;96.10
76936;DHT22;65881;52.438;16.744;2023-09-18T07:11:48;17.80;93.40
76936;DHT22;65881;52.438;16.744;2023-09-18T07:14:14;17.80;93.90
76936;DHT22;65881;52.438;16.744;2023-09-18T07:16:40;17.80;94.80
76936;DHT22;65881;52.438;16.744;2023-09-18T07:19:06;17.80;94.70
76936;DHT22;65881;52.438;16.744;2023-09-18T07:21:32;18.00;93.50
76936;DHT22;65881;52.438;16.744;2023-09-18T07:24:00;18.10;93.50
76936;DHT22;65881;52.438;16.744;2023-09-18T07:26:25;18.10;94.00
76936;DHT22;65881;52.438;16.744;2023-09-18T07:28:51;18.20;93.90
76936;DHT22;65881;52.438;16.744;2023-09-18T07:31:17;18.30;93.70
76936;DHT22;65881;52.438;16.744;2023-09-18T07:33:42;18.30;93.40
76936;DHT22;65881;52.438;16.744;2023-09-18T07:36:09;18.30;92.10
76936;DHT22;65881;52.438;16.744;2023-09-18T07:38:40;18.50;91.80
76936;DHT22;65881;52.438;16.744;2023-09-18T07:41:08;18.70;90.40
76936;DHT22;65881;52.438;16.744;2023-09-18T07:43:34;19.00;90.10
76936;DHT22;65881;52.438;16.744;2023-09-18T07:46:00;19.20;89.40
76936;DHT22;65881;52.438;16.744;2023-09-18T07:48:27;19.20;89.10
76936;DHT22;65881;52.438;16.744;2023-09-18T07:50:53;19.30;88.80
76936;DHT22;65881;52.438;16.744;2023-09-18T07:53:20;19.30;87.50
76936;DHT22;65881;52.438;16.744;2023-09-18T07:55:48;19.50;87.10
76936;DHT22;65881;52.438;16.744;2023-09-18T07:58:20;19.50;86.90
76936;DHT22;65881;52.438;16.744;2023-09-18T08:00:46;19.70;87.00
76936;DHT22;65881;52.438;16.744;2023-09-18T08:03:13;19.70;85.50
76936;DHT22;65881;52.438;16.744;2023-09-18T08:05:39;19.90;85.60
76936;DHT22;65881;52.438;16.744;2023-09-18T08:08:05;20.00;83.90
76936;DHT22;65881;52.438;16.744;2023-09-18T08:10:36;20.00;84.90
76936;DHT22;65881;52.438;16.744;2023-09-18T08:13:03;20.10;85.50
76936;DHT22;65881;52.438;16.744;2023-09-18T08:15:28;20.20;85.10
76936;DHT22;65881;52.438;16.744;2023-09-18T08:17:54;20.30;82.80
76936;DHT22;65881;52.438;16.744;2023-09-18T08:20:20;20.40;83.10
76936;DHT22;65881;52.438;16.744;2023-09-18T08:22:46;20.60;82.90
76936;DHT22;65881;52.438;16.744;2023-09-18T08:25:13;20.80;80.80
76936;DHT22;65881;52.438;16.744;2023-09-18T08:27:42;20.90;79.70
76936;DHT22;65881;52.438;16.744;2023-09-18T08:30:11;21.10;81.00
76936;DHT22;65881;52.438;16.744;2023-09-18T08:32:38;21.10;80.00
76936;DHT22;65881;52.438;16.744;2023-09-18T08:35:04;21.20;79.70
76936;DHT22;65881;52.438;16.744;2023-09-18T08:37:30;21.40;79.70
76936;DHT22;65881;52.438;16.744;2023-09-18T08:39:56;21.50;79.10
76936;DHT22;65881;52.438;16.744;2023-09-18T08:42:21;21.60;78.80
76936;DHT22;65881;52.438;16.744;2023-09-18T08:44:50;21.80;77.90
76936;DHT22;65881;52.438;16.744;2023-09-18T08:47:17;22.10;76.10
76936;DHT22;65881;52.438;16.744;2023-09-18T08:49:46;22.30;75.10
76936;DHT22;65881;52.438;16.744;2023-09-18T08:52:15;22.50;74.20
76936;DHT22;65881;52.438;16.744;2023-09-18T08:54:42;22.60;73.60
76936;DHT22;65881;52.438;16.744;2023-09-18T08:57:08;22.60;73.60
76936;DHT22;65881;52.438;16.744;2023-09-18T08:59:36;22.60;74.10
76936;DHT22;65881;52.438;16.744;2023-09-18T09:02:03;22.70;74.00
76936;DHT22;65881;52.438;16.744;2023-09-18T09:04:28;22.70;73.90
76936;DHT22;65881;52.438;16.744;2023-09-18T09:06:54;22.80;72.80
76936;DHT22;65881;52.438;16.744;2023-09-18T09:09:23;23.00;72.50
76936;DHT22;65881;52.438;16.744;2023-09-18T09:11:50;23.20;72.10
76936;DHT22;65881;52.438;16.744;2023-09-18T09:14:15;23.30;72.10
76936;DHT22;65881;52.438;16.744;2023-09-18T09:16:49;23.40;72.20
76936;DHT22;65881;52.438;16.744;2023-09-18T09:19:16;23.50;71.60
76936;DHT22;65881;52.438;16.744;2023-09-18T09:21:43;23.60;70.40
76936;DHT22;65881;52.438;16.744;2023-09-18T09:24:12;23.70;70.30
76936;DHT22;65881;52.438;16.744;2023-09-18T09:26:41;23.80;70.90
76936;DHT22;65881;52.438;16.744;2023-09-18T09:29:19;23.90;69.70
76936;DHT22;65881;52.438;16.744;2023-09-18T09:31:45;24.00;70.10
76936;DHT22;65881;52.438;16.744;2023-09-18T09:34:16;24.10;68.70
76936;DHT22;65881;52.438;16.744;2023-09-18T09:36:56;24.10;68.50
76936;DHT22;65881;52.438;16.744;2023-09-18T09:39:26;24.00;69.30
76936;DHT22;65881;52.438;16.744;2023-09-18T09:41:55;24.00;70.10
76936;DHT22;65881;52.438;16.744;2023-09-18T09:44:21;24.20;68.30
76936;DHT22;65881;52.438;16.744;2023-09-18T09:46:48;24.40;69.10
76936;DHT22;65881;52.438;16.744;2023-09-18T09:49:15;24.70;67.30
76936;DHT22;65881;52.438;16.744;2023-09-18T09:51:42;24.90;65.70
76936;DHT22;65881;52.438;16.744;2023-09-18T09:54:08;25.00;65.30
76936;DHT22;65881;52.438;16.744;2023-09-18T09:56:48;25.20;64.60
76936;DHT22;65881;52.438;16.744;2023-09-18T09:59:16;25.50;62.90
76936;DHT22;65881;52.438;16.744;2023-09-18T10:01:47;25.60;63.90
76936;DHT22;65881;52.438;16.744;2023-09-18T10:04:16;25.80;62.90
76936;DHT22;65881;52.438;16.744;2023-09-18T10:06:52;25.80;61.10
76936;DHT22;65881;52.438;16.744;2023-09-18T10:09:22;25.90;61.40
76936;DHT22;65881;52.438;16.744;2023-09-18T10:11:51;26.00;60.40
76936;DHT22;65881;52.438;16.744;2023-09-18T10:14:19;26.20;59.00
76936;DHT22;65881;52.438;16.744;2023-09-18T10:16:50;26.30;59.10
76936;DHT22;65881;52.438;16.744;2023-09-18T10:22:05;26.50;57.90
76936;DHT22;65881;52.438;16.744;2023-09-18T10:24:39;26.50;56.50
76936;DHT22;65881;52.438;16.744;2023-09-18T10:27:07;26.60;57.20
76936;DHT22;65881;52.438;16.744;2023-09-18T10:29:36;26.80;56.30
76936;DHT22;65881;52.438;16.744;2023-09-18T10:32:06;26.80;56.20
76936;DHT22;65881;52.438;16.744;2023-09-18T10:34:35;27.10;56.10
76936;DHT22;65881;52.438;16.744;2023-09-18T10:37:05;27.20;55.10
76936;DHT22;65881;52.438;16.744;2023-09-18T10:39:37;27.40;54.40
76936;DHT22;65881;52.438;16.744;2023-09-18T10:42:08;27.50;54.80
76936;DHT22;65881;52.438;16.744;2023-09-18T10:44:34;27.80;54.40
76936;DHT22;65881;52.438;16.744;2023-09-18T10:47:02;27.80;53.50
76936;DHT22;65881;52.438;16.744;2023-09-18T10:49:30;27.80;54.00
76936;DHT22;65881;52.438;16.744;2023-09-18T10:51:58;27.90;54.00
76936;DHT22;65881;52.438;16.744;2023-09-18T10:54:26;27.90;53.40
76936;DHT22;65881;52.438;16.744;2023-09-18T10:56:55;27.90;53.30
76936;DHT22;65881;52.438;16.744;2023-09-18T10:59:23;28.00;53.50
76936;DHT22;65881;52.438;16.744;2023-09-18T11:01:50;28.00;51.80
76936;DHT22;65881;52.438;16.744;2023-09-18T11:04:19;27.70;52.60
76936;DHT22;65881;52.438;16.744;2023-09-18T11:07:20;27.50;52.60
76936;DHT22;65881;52.438;16.744;2023-09-18T11:09:46;27.90;52.50
76936;DHT22;65881;52.438;16.744;2023-09-18T11:12:15;28.10;52.70
76936;DHT22;65881;52.438;16.744;2023-09-18T11:15:08;27.90;51.40
76936;DHT22;65881;52.438;16.744;2023-09-18T11:17:59;27.90;51.80
76936;DHT22;65881;52.438;16.744;2023-09-18T11:20:28;28.00;51.00
76936;DHT22;65881;52.438;16.744;2023-09-18T11:23:16;28.10;51.50
76936;DHT22;65881;52.438;16.744;2023-09-18T11:25:43;28.20;50.80
76936;DHT22;65881;52.438;16.744;2023-09-18T11:28:23;28.10;52.00
76936;DHT22;65881;52.438;16.744;2023-09-18T11:30:53;28.10;51.20
76936;DHT22;65881;52.438;16.744;2023-09-18T11:33:37;28.10;52.00
76936;DHT22;65881;52.438;16.744;2023-09-18T11:36:11;28.10;52.50
76936;DHT22;65881;52.438;16.744;2023-09-18T11:39:12;28.30;52.70
76936;DHT22;65881;52.438;16.744;2023-09-18T11:41:38;28.50;51.40
76936;DHT22;65881;52.438;16.744;2023-09-18T11:46:39;28.70;50.50
76936;DHT22;65881;52.438;16.744;2023-09-18T11:49:08;28.60;48.70
76936;DHT22;65881;52.438;16.744;2023-09-18T11:51:36;28.40;48.70
76936;DHT22;65881;52.438;16.744;2023-09-18T11:54:05;28.50;48.40
76936;DHT22;65881;52.438;16.744;2023-09-18T11:56:33;28.60;47.70
76936;DHT22;65881;52.438;16.744;2023-09-18T11:58:58;28.50;48.70
76936;DHT22;65881;52.438;16.744;2023-09-18T12:01:31;28.70;47.60
76936;DHT22;65881;52.438;16.744;2023-09-18T12:04:01;28.80;48.30
76936;DHT22;65881;52.438;16.744;2023-09-18T12:06:27;28.90;48.40
76936;DHT22;65881;52.438;16.744;2023-09-18T12:08:53;28.80;47.70
76936;DHT22;65881;52.438;16.744;2023-09-18T12:11:21;28.90;46.00
76936;DHT22;65881;52.438;16.744;2023-09-18T12:13:51;28.90;45.80
76936;DHT22;65881;52.438;16.744;2023-09-18T12:16:16;28.90;46.70
76936;DHT22;65881;52.438;16.744;2023-09-18T12:18:48;28.90;47.70
76936;DHT22;65881;52.438;16.744;2023-09-18T12:21:15;28.90;47.10
76936;DHT22;65881;52.438;16.744;2023-09-18T12:23:44;28.90;48.60
76936;DHT22;65881;52.438;16.744;2023-09-18T12:26:15;28.60;47.70
76936;DHT22;65881;52.438;16.744;2023-09-18T12:28:44;28.40;47.90
76936;DHT22;65881;52.438;16.744;2023-09-18T12:31:14;28.10;48.70
76936;DHT22;65881;52.438;16.744;2023-09-18T12:33:42;27.90;48.50
76936;DHT22;65881;52.438;16.744;2023-09-18T12:36:10;27.90;49.00
76936;DHT22;65881;52.438;16.744;2023-09-18T12:38:37;27.80;49.20
76936;DHT22;65881;52.438;16.744;2023-09-18T12:41:04;27.70;49.00
76936;DHT22;65881;52.438;16.744;2023-09-18T12:43:40;27.90;48.80
76936;DHT22;65881;52.438;16.744;2023-09-18T12:46:07;27.90;48.20
76936;DHT22;65881;52.438;16.744;2023-09-18T12:48:40;27.90;48.60
76936;DHT22;65881;52.438;16.744;2023-09-18T12:51:18;27.90;48.20
76936;DHT22;65881;52.438;16.744;2023-09-18T12:53:58;28.00;48.20
76936;DHT22;65881;52.438;16.744;2023-09-18T12:56:24;28.00;47.20
76936;DHT22;65881;52.438;16.744;2023-09-18T12:59:00;27.90;47.30
76936;DHT22;65881;52.438;16.744;2023-09-18T13:01:28;27.90;47.80
76936;DHT22;65881;52.438;16.744;2023-09-18T13:03:54;27.80;48.20
76936;DHT22;65881;52.438;16.744;2023-09-18T13:06:22;27.80;48.80
76936;DHT22;65881;52.438;16.744;2023-09-18T13:08:52;28.00;48.70
76936;DHT22;65881;52.438;16.744;2023-09-18T13:11:18;28.10;47.90
76936;DHT22;65881;52.438;16.744;2023-09-18T13:13:44;28.10;47.70
76936;DHT22;65881;52.438;16.744;2023-09-18T13:16:10;28.00;48.00
76936;DHT22;65881;52.438;16.744;2023-09-18T13:18:36;28.00;47.70
76936;DHT22;65881;52.438;16.744;2023-09-18T13:21:12;27.70;48.10
76936;DHT22;65881;52.438;16.744;2023-09-18T13:23:38;27.50;48.60
76936;DHT22;65881;52.438;16.744;2023-09-18T13:26:05;27.50;50.00
76936;DHT22;65881;52.438;16.744;2023-09-18T13:28:31;27.30;50.30
76936;DHT22;65881;52.438;16.744;2023-09-18T13:31:03;27.30;50.40
76936;DHT22;65881;52.438;16.744;2023-09-18T13:33:32;27.20;50.80
76936;DHT22;65881;52.438;16.744;2023-09-18T13:35:59;27.30;49.90
76936;DHT22;65881;52.438;16.744;2023-09-18T13:38:25;27.30;49.80
76936;DHT22;65881;52.438;16.744;2023-09-18T13:40:53;27.40;50.10
76936;DHT22;65881;52.438;16.744;2023-09-18T13:43:20;27.70;49.80
76936;DHT22;65881;52.438;16.744;2023-09-18T13:45:50;27.80;50.40
76936;DHT22;65881;52.438;16.744;2023-09-18T13:48:19;28.10;49.70
76936;DHT22;65881;52.438;16.744;2023-09-18T13:50:46;28.10;48.60
76936;DHT22;65881;52.438;16.744;2023-09-18T13:53:13;28.30;49.10
76936;DHT22;65881;52.438;16.744;2023-09-18T13:55:39;28.30;47.20
76936;DHT22;65881;52.438;16.744;2023-09-18T13:58:05;28.30;47.10
76936;DHT22;65881;52.438;16.744;2023-09-18T14:00:31;28.10;47.00
76936;DHT22;65881;52.438;16.744;2023-09-18T14:02:57;28.00;48.20
76936;DHT22;65881;52.438;16.744;2023-09-18T14:05:23;27.80;48.00
76936;DHT22;65881;52.438;16.744;2023-09-18T14:07:48;27.50;49.00
76936;DHT22;65881;52.438;16.744;2023-09-18T14:10:15;27.50;48.70
76936;DHT22;65881;52.438;16.744;2023-09-18T14:12:44;27.50;49.00
76936;DHT22;65881;52.438;16.744;2023-09-18T14:15:11;27.40;49.50
76936;DHT22;65881;52.438;16.744;2023-09-18T14:17:38;27.50;49.50
76936;DHT22;65881;52.438;16.744;2023-09-18T14:20:05;27.50;49.60
76936;DHT22;65881;52.438;16.744;2023-09-18T14:22:32;27.60;49.00
76936;DHT22;65881;52.438;16.744;2023-09-18T14:24:58;27.70;48.90
76936;DHT22;65881;52.438;16.744;2023-09-18T14:27:24;27.80;48.90
76936;DHT22;65881;52.438;16.744;2023-09-18T14:29:50;27.80;49.30
76936;DHT22;65881;52.438;16.744;2023-09-18T14:32:15;27.80;48.90
76936;DHT22;65881;52.438;16.744;2023-09-18T14:34:42;27.80;49.50
76936;DHT22;65881;52.438;16.744;2023-09-18T14:37:09;28.00;49.50
76936;DHT22;65881;52.438;16.744;2023-09-18T14:39:34;27.90;48.90
76936;DHT22;65881;52.438;16.744;2023-09-18T14:42:00;27.90;49.70
76936;DHT22;65881;52.438;16.744;2023-09-18T14:44:26;27.70;49.20
76936;DHT22;65881;52.438;16.744;2023-09-18T14:46:55;27.60;50.30
76936;DHT22;65881;52.438;16.744;2023-09-18T14:49:21;27.50;49.60
76936;DHT22;65881;52.438;16.744;2023-09-18T14:51:47;27.50;49.50
76936;DHT22;65881;52.438;16.744;2023-09-18T14:54:15;27.40;50.10
76936;DHT22;65881;52.438;16.744;2023-09-18T14:56:40;27.30;49.20
76936;DHT22;65881;52.438;16.744;2023-09-18T14:59:07;27.20;49.60
76936;DHT22;65881;52.438;16.744;2023-09-18T15:01:35;27.20;50.10
76936;DHT22;65881;52.438;16.744;2023-09-18T15:04:01;27.10;50.10
76936;DHT22;65881;52.438;16.744;2023-09-18T15:06:26;27.00;51.00
76936;DHT22;65881;52.438;16.744;2023-09-18T15:08:52;26.80;51.10
76936;DHT22;65881;52.438;16.744;2023-09-18T15:11:18;26.80;51.70
76936;DHT22;65881;52.438;16.744;2023-09-18T15:13:46;26.70;51.40
76936;DHT22;65881;52.438;16.744;2023-09-18T15:16:12;26.70;51.50
76936;DHT22;65881;52.438;16.744;2023-09-18T15:18:39;26.70;51.20
76936;DHT22;65881;52.438;16.744;2023-09-18T15:21:09;26.60;51.50
76936;DHT22;65881;52.438;16.744;2023-09-18T15:23:54;26.50;51.90
76936;DHT22;65881;52.438;16.744;2023-09-18T15:26:20;26.40;51.70
76936;DHT22;65881;52.438;16.744;2023-09-18T15:28:46;26.40;52.40
76936;DHT22;65881;52.438;16.744;2023-09-18T15:31:11;26.20;53.00